Time;durP1;ratioP1;P1;durP2;ratioP2;P2;SDS_P1;SDS_P2;PMS_P1;PMS_P2;Temp;Humidity;BMP_temperature;BMP_pressure;BME280_temperature;BME280_humidity;BME280_pressure;Samples;Min_cycle;Max_cycle;Signal;HPM_P1;HPM_P2
2021/04/11 00:00:41;;;;;;;22.27;17.30;;;;;;;7.13;42.23;101304.61;1631284;88;21082;-73
2021/04/11 00:03:12;;;;;;;23.27;16.83;;;;;;;7.11;42.15;101311.37;1630806;88;21683;-73
2021/04/11 00:05:41;;;;;;;18.80;15.70;;;;;;;7.09;42.08;101305.88;1631482;87;21628;-73
2021/04/11 00:08:11;;;;;;;20.93;15.60;;;;;;;7.06;42.20;101309.62;1631081;88;21165;-74
2021/04/11 00:10:46;;;;;;;22.97;16.33;;;;;;;7.04;42.22;101306.28;1626537;88;21178;-74
2021/04/11 00:13:25;;;;;;;24.00;16.50;;;;;;;7.04;42.29;101309.44;1635622;88;21181;-73
2021/04/11 00:15:53;;;;;;;21.20;16.97;;;;;;;7.01;42.35;101307.91;1614390;87;21244;-73
2021/04/11 00:18:20;;;;;;;20.20;15.70;;;;;;;6.81;42.23;101284.55;1590534;90;21204;-74
2021/04/11 00:20:48;;;;;;;19.23;15.37;;;;;;;6.95;42.20;101315.94;1597658;90;21207;-74
2021/04/11 00:23:17;;;;;;;21.10;16.13;;;;;;;6.99;42.21;101315.17;1591833;89;21610;-74
2021/04/11 00:25:44;;;;;;;22.33;15.97;;;;;;;6.97;42.15;101318.45;1607066;88;21429;-73
2021/04/11 00:28:14;;;;;;;20.63;16.10;;;;;;;6.98;42.11;101320.94;1635839;86;21197;-74
2021/04/11 00:30:41;;;;;;;24.33;16.57;;;;;;;6.97;42.17;101322.43;1618584;87;21177;-74
2021/04/11 00:33:21;;;;;;;23.43;15.27;;;;;;;6.96;42.21;101318.09;1608882;87;21216;-74
2021/04/11 00:36:02;;;;;;;21.03;16.00;;;;;;;6.93;42.36;101319.69;1620146;87;22286;-74
2021/04/11 00:38:30;;;;;;;20.50;15.50;;;;;;;6.89;42.46;101326.25;1582388;89;21647;-73
2021/04/11 00:41:02;;;;;;;27.50;17.20;;;;;;;6.83;42.60;101323.17;1598396;89;21725;-74
2021/04/11 00:43:30;;;;;;;21.90;15.47;;;;;;;6.79;42.82;101322.28;1587952;88;21231;-73
2021/04/11 00:46:20;;;;;;;21.47;15.80;;;;;;;6.53;42.85;101291.52;1628268;87;21575;-74
2021/04/11 00:51:16;;;;;;;22.57;16.83;;;;;;;6.78;42.78;101321.92;1901431;74;23050;-74
2021/04/11 00:53:44;;;;;;;19.57;15.37;;;;;;;6.74;42.67;101329.34;1861282;75;21171;-74
2021/04/11 00:56:13;;;;;;;18.97;15.90;;;;;;;6.56;42.57;101301.85;1812442;74;21748;-74
2021/04/11 00:58:41;;;;;;;23.53;15.83;;;;;;;6.75;42.60;101334.14;1786015;79;21349;-73
2021/04/11 01:01:09;;;;;;;22.30;15.07;;;;;;;6.71;42.59;101326.95;1782709;79;21380;-75
2021/04/11 01:03:39;;;;;;;24.73;17.13;;;;;;;6.68;42.74;101328.55;1816823;78;21131;-75
2021/04/11 01:06:16;;;;;;;23.13;15.73;;;;;;;6.65;42.86;101322.22;1812329;78;21781;-75
2021/04/11 01:08:46;;;;;;;18.40;14.40;;;;;;;6.61;43.02;101322.13;1803064;78;21153;-76
2021/04/11 01:11:20;;;;;;;22.90;16.20;;;;;;;6.56;43.22;101326.52;1800629;78;22486;-75
2021/04/11 01:13:59;;;;;;;20.67;16.13;;;;;;;6.51;43.37;101330.06;1789200;79;21222;-73
2021/04/11 01:16:30;;;;;;;21.47;15.63;;;;;;;6.43;43.73;101326.78;1768337;80;21188;-72
2021/04/11 01:19:03;;;;;;;18.57;14.97;;;;;;;6.38;43.81;101323.69;1783913;79;21187;-72
2021/04/11 01:22:18;;;;;;;18.47;14.27;;;;;;;6.36;43.98;101326.14;1777304;79;21199;-73
2021/04/11 01:24:53;;;;;;;20.10;16.47;;;;;;;6.36;43.80;101329.61;1793047;79;21760;-74
2021/04/11 01:27:29;;;;;;;22.80;15.20;;;;;;;6.33;44.35;101331.23;1794416;78;22151;-74
2021/04/11 01:29:59;;;;;;;19.23;15.47;;;;;;;6.31;44.35;101331.86;1765023;79;21702;-73
2021/04/11 01:32:28;;;;;;;21.50;15.93;;;;;;;6.27;44.43;101325.14;1792792;78;21140;-73
2021/04/11 01:34:57;;;;;;;17.43;15.00;;;;;;;6.23;44.80;101325.06;1780844;78;21713;-75
2021/04/11 01:37:27;;;;;;;20.33;15.97;;;;;;;6.19;44.94;101329.79;1787790;79;21131;-75
2021/04/11 01:39:56;;;;;;;19.93;15.13;;;;;;;6.14;45.17;101326.73;1778018;78;21164;-74
2021/04/11 01:42:23;;;;;;;23.70;16.00;;;;;;;6.10;45.26;101325.30;1779804;78;21167;-75
2021/04/11 01:44:51;;;;;;;21.10;16.50;;;;;;;6.03;45.16;101318.40;1790105;78;21110;-75
2021/04/11 01:47:21;;;;;;;21.67;17.10;;;;;;;6.01;45.28;101325.64;1782872;78;21655;-73
2021/04/11 01:49:49;;;;;;;23.90;15.40;;;;;;;5.97;45.57;101320.27;1769929;79;21618;-75
2021/04/11 01:52:25;;;;;;;21.60;16.37;;;;;;;5.95;45.63;101326.61;1765134;80;21175;-74
2021/04/11 01:54:55;;;;;;;22.17;17.70;;;;;;;5.90;45.34;101328.35;1774764;79;21963;-74
2021/04/11 01:57:28;;;;;;;23.03;16.97;;;;;;;5.83;45.50;101339.94;1768571;79;21554;-74
2021/04/11 02:00:28;;;;;;;22.43;16.10;;;;;;;5.85;45.23;101334.03;1772193;78;21164;-77
2021/04/11 02:03:00;;;;;;;24.37;16.33;;;;;;;5.87;45.23;101337.04;1777995;79;21368;-75
2021/04/11 02:05:30;;;;;;;19.47;16.17;;;;;;;5.88;45.19;101334.27;1785194;79;21511;-74
2021/04/11 02:07:59;;;;;;;21.17;15.70;;;;;;;5.88;45.27;101334.73;1782735;78;21211;-75
2021/04/11 02:10:32;;;;;;;23.57;17.03;;;;;;;5.89;45.48;101336.42;1784108;78;21681;-76
2021/04/11 02:13:11;;;;;;;20.00;15.63;;;;;;;5.86;45.59;101340.18;1783332;78;21130;-79
2021/04/11 02:15:44;;;;;;;22.30;16.23;;;;;;;5.84;45.59;101346.09;1772765;78;21196;-76
2021/04/11 02:18:14;;;;;;;23.77;17.03;;;;;;;5.82;45.64;101346.69;1788739;79;21202;-74
2021/04/11 02:20:43;;;;;;;26.30;17.53;;;;;;;5.81;45.69;101347.67;1798809;79;21232;-74
2021/04/11 02:23:14;;;;;;;24.23;18.07;;;;;;;5.80;45.78;101343.33;1800948;79;21154;-75
2021/04/11 02:25:47;;;;;;;22.43;17.70;;;;;;;5.76;46.02;101345.41;1787247;79;21583;-75
2021/04/11 02:28:19;;;;;;;20.97;17.47;;;;;;;5.74;46.35;101349.16;1784143;79;21793;-75
2021/04/11 02:30:55;;;;;;;21.03;16.73;;;;;;;5.71;46.49;101352.06;1794853;79;21701;-74
2021/04/11 02:33:24;;;;;;;23.30;17.30;;;;;;;5.69;46.56;101357.97;1801106;78;21247;-74
2021/04/11 02:35:52;;;;;;;23.03;18.80;;;;;;;5.65;46.61;101362.68;1803919;79;21145;-74
2021/04/11 02:38:21;;;;;;;24.40;18.33;;;;;;;5.59;46.55;101360.56;1780421;79;21813;-74
2021/04/11 02:40:51;;;;;;;22.30;17.27;;;;;;;5.58;46.68;101358.41;1795078;79;21165;-75
2021/04/11 02:43:20;;;;;;;20.73;17.73;;;;;;;5.58;46.67;101362.87;1784024;79;21198;-74
2021/04/11 02:45:49;;;;;;;22.43;17.47;;;;;;;5.56;47.01;101361.67;1761492;79;21398;-74
2021/04/11 02:48:18;;;;;;;21.33;17.23;;;;;;;5.56;46.86;101368.78;1743286;80;21216;-74
2021/04/11 02:50:49;;;;;;;26.83;17.83;;;;;;;5.54;47.18;101372.87;1744794;80;21746;-75
2021/04/11 02:53:22;;;;;;;24.97;17.70;;;;;;;5.51;47.38;101370.48;1735333;81;21258;-74
2021/04/11 02:55:53;;;;;;;27.97;19.00;;;;;;;5.48;47.19;101373.86;1730100;82;21132;-73
2021/04/11 02:58:23;;;;;;;23.17;17.70;;;;;;;5.43;47.34;101380.88;1713427;82;21273;-72
2021/04/11 03:01:04;;;;;;;24.10;17.97;;;;;;;5.40;47.33;101374.52;1676691;83;21205;-74
2021/04/11 03:03:33;;;;;;;27.77;19.33;;;;;;;5.38;47.42;101377.77;1670042;85;21659;-84
2021/04/11 03:06:12;;;;;;;25.50;17.80;;;;;;;5.36;47.46;101381.03;1662438;84;22243;-84
2021/04/11 03:08:43;;;;;;;26.77;19.23;;;;;;;5.34;47.58;101377.68;1682636;84;21224;-84
2021/04/11 03:11:29;;;;;;;25.87;18.70;;;;;;;5.30;47.57;101383.70;1665292;80;21227;-84
2021/04/11 03:14:00;;;;;;;27.50;17.97;;;;;;;5.31;47.42;101388.01;1739181;80;21183;-87
2021/04/11 03:16:35;;;;;;;26.00;17.67;;;;;;;5.33;47.71;101386.56;1738850;80;21842;-85
2021/04/11 03:19:07;;;;;;;20.67;17.50;;;;;;;5.32;47.69;101391.52;1726790;81;21235;-87
2021/04/11 03:21:41;;;;;;;23.33;18.13;;;;;;;5.32;47.49;101398.12;1764602;80;21300;-86
2021/04/11 03:24:10;;;;;;;24.87;19.27;;;;;;;5.33;47.37;101405.07;1717138;80;21133;-86
2021/04/11 03:27:08;;;;;;;28.13;18.17;;;;;;;5.35;47.30;101411.93;1697311;83;21169;-86
2021/04/11 03:29:41;;;;;;;28.30;17.70;;;;;;;5.36;47.32;101412.27;1705895;82;21144;-86
2021/04/11 03:32:20;;;;;;;20.40;17.40;;;;;;;5.41;47.42;101414.55;1686509;83;21202;-86
2021/04/11 03:34:53;;;;;;;22.73;16.63;;;;;;;5.47;47.51;101415.34;1741302;80;21306;-86
2021/04/11 03:37:23;;;;;;;23.63;18.07;;;;;;;5.53;47.55;101417.47;1763907;80;21212;-87
2021/04/11 03:39:51;;;;;;;24.37;18.83;;;;;;;5.62;47.31;101425.12;1682099;82;21631;-85
2021/04/11 03:42:22;;;;;;;24.50;17.83;;;;;;;5.75;46.88;101426.25;1698108;83;21676;-85
2021/04/11 03:44:53;;;;;;;29.10;18.97;;;;;;;5.91;46.88;101429.25;1701037;81;21135;-86
2021/04/11 03:47:49;;;;;;;23.77;17.67;;;;;;;6.11;46.52;101434.69;1722737;81;21216;-87
2021/04/11 03:50:23;;;;;;;21.50;18.33;;;;;;;6.35;46.00;101433.89;1727059;82;21208;-86
2021/04/11 03:53:09;;;;;;;25.00;19.27;;;;;;;5.93;45.02;101308.72;1718184;82;21309;-86
2021/04/11 03:55:42;;;;;;;23.05;17.85;;;;;;;7.18;44.54;101435.78;1732406;81;21226;-85
2021/04/11 03:58:25;;;;;;;29.60;19.37;;;;;;;7.69;43.56;101446.23;1659621;84;21196;-85
2021/04/11 04:00:57;;;;;;;28.10;18.10;;;;;;;8.11;42.16;101451.98;1713358;82;21579;-86
2021/04/11 04:03:30;;;;;;;24.43;17.73;;;;;;;8.47;41.48;101449.48;1729094;81;21324;-86
2021/04/11 04:06:21;;;;;;;25.67;18.97;;;;;;;8.90;41.14;101452.48;1784113;78;21353;-87
2021/04/11 04:08:50;;;;;;;20.32;18.12;;;;;;;9.40;39.13;101452.44;1780718;79;21642;-86
2021/04/11 04:12:08;;;;;;;20.53;17.23;;;;;;;9.64;38.48;101457.96;1802431;79;21359;-88
2021/04/11 04:15:04;;;;;;;24.70;18.23;;;;;;;9.71;38.46;101453.69;1777098;78;21195;-85
2021/04/11 04:17:51;;;;;;;23.10;17.60;;;;;;;9.91;38.13;101466.33;1811651;79;21203;-85
2021/04/11 04:20:28;;;;;;;;;;;;;;;10.40;37.48;101466.31;1731191;80;21194;-84
2021/04/11 04:23:13;;;;;;;25.90;16.83;;;;;;;11.03;36.06;101467.16;1795484;78;20163;-86
2021/04/11 04:26:13;;;;;;;27.07;19.47;;;;;;;11.65;35.15;101470.72;1784692;78;21680;-86
2021/04/11 04:28:55;;;;;;;28.97;18.57;;;;;;;12.25;33.75;101471.34;1785348;78;21358;-87
2021/04/11 04:31:40;;;;;;;22.03;16.87;;;;;;;12.62;33.44;101470.70;1787041;78;21478;-85
2021/04/11 04:34:26;;;;;;;22.07;18.03;;;;;;;12.87;32.21;101469.23;1795373;77;21080;-81
2021/04/11 04:37:24;;;;;;;23.20;17.77;;;;;;;12.68;32.32;101478.53;1804886;78;21169;-80
2021/04/11 04:40:14;;;;;;;22.30;17.00;;;;;;;12.70;32.59;101476.52;1794110;78;21638;-81
2021/04/11 04:42:49;;;;;;;25.00;16.57;;;;;;;12.99;32.12;101483.88;1804279;77;21625;-79
2021/04/11 04:45:40;;;;;;;23.55;16.30;;;;;;;13.12;31.41;101478.45;1783886;78;21211;-80
2021/04/11 04:48:30;;;;;;;19.33;16.33;;;;;;;13.13;31.58;101477.43;1751590;80;21636;-80
2021/04/11 04:51:20;;;;;;;22.70;17.73;;;;;;;13.10;31.20;101484.50;1760008;80;21183;-81
2021/04/11 04:54:29;;;;;;;17.98;16.00;;;;;;;13.25;31.52;101478.19;1808093;79;22973;-81
2021/04/11 04:57:18;;;;;;;16.70;14.90;;;;;;;13.52;31.10;101477.34;1733002;79;21054;-78
2021/04/11 05:00:27;;;;;;;18.80;15.70;;;;;;;13.81;29.74;101475.27;1741840;81;21177;-79
2021/04/11 05:03:17;;;;;;;18.35;16.17;;;;;;;13.72;29.49;101479.55;1704144;82;21208;-80
2021/04/11 05:06:05;;;;;;;17.73;15.10;;;;;;;13.75;30.35;101487.20;1692330;83;21654;-79
2021/04/11 05:09:02;;;;;;;21.25;15.15;;;;;;;14.04;29.79;101487.78;1666266;84;21360;-81
2021/04/11 05:11:47;;;;;;;16.05;14.03;;;;;;;14.40;29.15;101484.37;1701722;81;21096;-79
2021/04/11 05:14:19;;;;;;;19.62;14.95;;;;;;;14.72;28.85;101489.88;1700571;82;21348;-78
2021/04/11 05:17:02;;;;;;;17.60;14.90;;;;;;;14.90;28.14;101489.48;1671966;84;21135;-81
2021/04/11 05:19:44;;;;;;;17.00;13.43;;;;;;;15.02;28.27;101498.39;1675227;82;21178;-80
2021/04/11 05:22:51;;;;;;;14.63;13.07;;;;;;;14.75;27.58;101499.42;1672613;82;21765;-78
2021/04/11 05:25:41;;;;;;;16.48;14.58;;;;;;;14.31;28.61;101498.37;1700660;82;21179;-81
2021/04/11 05:28:25;;;;;;;20.72;14.07;;;;;;;14.08;28.40;101498.97;1657489;84;21167;-80
2021/04/11 05:31:00;;;;;;;15.50;13.72;;;;;;;14.25;28.42;101493.75;1697475;82;21649;-79
2021/04/11 05:33:28;;;;;;;22.25;14.30;;;;;;;14.40;28.10;101497.78;1697829;82;21258;-79
2021/04/11 05:36:09;;;;;;;16.25;13.05;;;;;;;14.40;27.82;101501.81;1693701;82;21335;-79
2021/04/11 05:39:04;;;;;;;16.20;14.18;;;;;;;14.41;28.31;101502.97;1698975;82;21199;-80
2021/04/11 05:41:42;;;;;;;17.40;13.38;;;;;;;14.38;27.75;101503.33;1694165;82;21232;-79
2021/04/11 05:44:15;;;;;;;20.27;12.60;;;;;;;14.39;27.98;101500.12;1695474;81;21665;-79
2021/04/11 05:47:05;;;;;;;14.60;13.10;;;;;;;14.79;27.63;101500.70;1671868;84;21168;-79
2021/04/11 05:49:39;;;;;;;18.48;14.70;;;;;;;15.12;27.02;101497.04;1669804;84;21830;-79
2021/04/11 05:52:29;;;;;;;14.70;12.18;;;;;;;15.37;26.82;101495.36;1671101;81;21222;-95
2021/04/11 05:55:03;;;;;;;18.75;15.18;;;;;;;15.65;26.11;101502.13;1674765;84;21233;-91
2021/04/11 05:57:48;;;;;;;17.30;13.70;;;;;;;15.73;25.98;101503.84;1664019;84;21190;-90
2021/04/11 06:00:51;;;;;;;16.50;14.03;;;;;;;15.92;26.50;101506.41;1660625;84;21126;-91
2021/04/11 06:03:26;;;;;;;16.50;14.73;;;;;;;16.31;25.59;101509.03;1670072;85;21885;-94
2021/04/11 06:06:38;;;;;;;;;;;;;;;;;;;;;
2021/04/11 06:09:46;;;;;;;16.32;13.80;;;;;;;16.46;25.65;101507.57;1811288;79;22943;-92
2021/04/11 06:12:31;;;;;;;20.75;14.80;;;;;;;16.54;25.36;101518.19;1784899;79;21140;-95
2021/04/11 06:15:11;;;;;;;15.68;13.93;;;;;;;16.58;25.45;101513.24;1733438;80;21203;-93
2021/04/11 06:17:46;;;;;;;18.17;14.87;;;;;;;16.45;25.64;101512.13;1759789;80;21319;-91
2021/04/11 06:20:16;;;;;;;16.40;14.75;;;;;;;16.31;25.79;101513.06;1763091;80;21178;-91
2021/04/11 06:23:21;;;;;;;16.48;14.80;;;;;;;16.24;25.89;101513.05;1760056;80;21077;-94
2021/04/11 06:26:35;;;;;;;;;;;;;;;;;;;;;
2021/04/11 06:29:40;;;;;;;16.62;14.87;;;;;;;16.58;25.77;101507.86;1765233;78;23136;-94
2021/04/11 06:32:18;;;;;;;23.85;16.25;;;;;;;16.60;25.70;101507.14;1784968;79;21153;-92
2021/04/11 06:35:05;;;;;;;18.30;15.30;;;;;;;16.56;25.65;101521.52;1740831;80;21142;-92
2021/04/11 06:37:43;;;;;;;17.80;15.83;;;;;;;16.42;25.86;101512.52;1693777;81;21198;-92
2021/04/11 06:40:45;;;;;;;20.32;15.48;;;;;;;16.23;25.98;101515.92;1707462;84;21164;-92
2021/04/11 06:44:06;;;;;;;17.25;15.45;;;;;;;16.12;26.58;101514.60;1675634;81;21209;-91
2021/04/11 06:47:39;;;;;;;21.52;17.48;;;;;;;16.24;26.54;101515.73;1706172;80;21177;-93
2021/04/11 06:51:24;;;;;;;17.30;15.45;;;;;;;16.33;26.24;101513.70;1702547;81;21351;-94
2021/04/11 07:16:11;;;;;;;25.12;16.17;;;;;;;14.53;29.15;101536.86;1767794;80;23178;-92
2021/04/11 07:18:48;;;;;;;23.47;17.52;;;;;;;14.37;29.24;101539.23;1788008;79;21180;-91
2021/04/11 07:22:17;;;;;;;16.77;15.08;;;;;;;14.27;28.60;101535.14;1760539;79;22931;-93
2021/04/11 07:25:12;;;;;;;21.65;18.05;;;;;;;14.08;28.97;101541.87;1781377;79;21594;-93
2021/04/11 07:28:24;;;;;;;21.23;17.17;;;;;;;13.98;30.08;101548.83;1773369;80;21132;-92
2021/04/11 07:31:21;;;;;;;25.85;17.80;;;;;;;13.90;30.26;101541.70;1777279;79;21148;-92
2021/04/11 07:34:44;;;;;;;20.72;16.97;;;;;;;13.87;30.37;101547.41;1750900;79;21837;-92
2021/04/11 08:17:34;;;;;;;;;;;;;;;;;;;;;
2021/04/11 08:21:19;;;;;;;;;;;;;;;;;;;;;
2021/04/11 08:28:46;;;;;;;10.28;6.10;;;;;;;14.30;26.91;101543.66;1529585;91;21278;-96
2021/04/11 08:45:44;;;;;;;8.78;5.72;;;;;;;14.47;25.50;101531.42;1712794;81;21188;-94
2021/04/11 08:49:57;;;;;;;6.33;5.75;;;;;;;14.50;25.92;101538.56;1658879;82;21193;-94
2021/04/11 09:11:00;;;;;;;;;;;;;;;;;;;;;
2021/04/11 09:14:35;;;;;;;8.23;5.35;;;;;;;14.76;24.29;101490.34;1816623;77;22929;-96
2021/04/11 09:21:53;;;;;;;8.03;5.30;;;;;;;14.82;25.31;101485.55;1770054;79;21209;-95
2021/04/11 09:25:45;;;;;;;7.00;5.20;;;;;;;15.01;25.29;101484.63;1827173;77;21093;-89
2021/04/11 09:29:09;;;;;;;6.40;5.80;;;;;;;15.11;25.01;101483.83;1834958;75;21111;-93
2021/04/11 09:32:36;;;;;;;;;;;;;;;;;;;;;
2021/04/11 09:46:49;;;;;;;10.23;6.05;;;;;;;15.33;25.32;101457.79;1769201;78;23730;-94
2021/04/11 09:50:11;;;;;;;8.68;6.25;;;;;;;15.37;25.67;101463.13;1736103;81;21179;-94
2021/04/11 09:53:14;;;;;;;;;;;;;;;;;;;;;
2021/04/11 09:56:27;;;;;;;8.80;6.22;;;;;;;15.47;23.92;101459.58;1809316;76;26083;-93
2021/04/11 09:59:17;;;;;;;13.93;7.25;;;;;;;15.31;24.29;101455.32;1756095;80;21226;-93
2021/04/11 10:02:10;;;;;;;11.78;6.95;;;;;;;15.27;24.50;101449.16;1754778;80;21095;-91
2021/04/11 10:05:03;;;;;;;6.00;5.50;;;;;;;15.37;24.82;101451.86;1760141;80;21192;-92
2021/04/11 10:08:33;;;;;;;6.47;5.70;;;;;;;15.48;24.43;101449.17;1739753;80;21317;-94
2021/04/11 10:11:53;;;;;;;6.87;6.12;;;;;;;15.50;24.01;101452.49;1729044;79;21209;-94
2021/04/11 10:15:17;;;;;;;6.42;5.00;;;;;;;15.43;24.28;101451.59;1727288;80;21620;-94
2021/04/11 10:18:32;;;;;;;6.78;5.40;;;;;;;15.41;24.47;101456.82;1770248;79;21160;-94
2021/04/11 10:21:34;;;;;;;6.65;5.87;;;;;;;15.46;24.58;101440.44;1713118;82;21219;-95
2021/04/11 10:24:51;;;;;;;6.42;5.83;;;;;;;15.63;24.62;101436.96;1741679;81;21230;-93
2021/04/11 10:27:39;;;;;;;5.37;4.85;;;;;;;15.79;24.34;101431.03;1701275;83;21167;-92
2021/04/11 10:30:15;;;;;;;8.65;6.00;;;;;;;15.92;24.31;101427.09;1774976;79;21159;-95
2021/04/11 10:33:08;;;;;;;8.63;5.50;;;;;;;16.03;24.26;101429.23;1743359;80;21172;-91
2021/04/11 10:36:12;;;;;;;14.28;7.85;;;;;;;16.09;23.51;101438.36;1721271;81;21199;-94
2021/04/11 10:39:04;;;;;;;7.72;5.87;;;;;;;16.06;23.66;101439.57;1680395;82;21504;-93
2021/04/11 10:42:02;;;;;;;10.32;7.62;;;;;;;15.99;23.61;101432.49;1737219;81;21226;-93
2021/04/11 10:44:50;;;;;;;12.88;5.85;;;;;;;15.92;24.10;101437.84;1753227;78;21098;-93
2021/04/11 10:48:18;;;;;;;6.42;5.80;;;;;;;15.96;24.16;101429.69;1737789;81;21716;-93
2021/04/11 10:51:19;;;;;;;15.23;10.18;;;;;;;16.07;24.33;101425.62;1756166;81;21168;-93
2021/04/11 10:54:18;;;;;;;14.78;9.98;;;;;;;16.12;24.05;101421.32;1752357;81;21290;-91
2021/04/11 10:57:20;;;;;;;8.05;7.35;;;;;;;16.17;24.02;101415.85;1745404;81;21140;-92
2021/04/11 11:00:17;;;;;;;8.33;6.42;;;;;;;16.23;23.89;101421.25;1745690;81;21849;-93
2021/04/11 11:03:55;;;;;;;10.25;6.00;;;;;;;16.24;23.69;101422.10;1741768;80;21222;-93
2021/04/11 11:06:56;;;;;;;9.50;5.83;;;;;;;16.09;23.57;101424.91;1733625;81;21195;-94
2021/04/11 11:09:49;;;;;;;13.43;6.12;;;;;;;16.07;23.85;101419.73;1684349;84;21243;-93
2021/04/11 11:12:56;;;;;;;8.15;6.33;;;;;;;16.10;23.92;101405.87;1701971;82;21117;-93
2021/04/11 11:16:03;;;;;;;13.83;6.40;;;;;;;16.13;23.45;101404.13;1724436;81;21139;-95
2021/04/11 11:19:54;;;;;;;6.80;6.00;;;;;;;16.08;23.40;101398.52;1637147;85;21243;-92
2021/04/11 11:23:33;;;;;;;6.20;5.10;;;;;;;16.11;24.25;101394.09;1787592;78;23074;-93
2021/04/11 11:30:10;;;;;;;7.50;5.90;;;;;;;16.25;22.91;101381.52;1812114;79;23384;-94
2021/04/11 11:33:03;;;;;;;8.90;5.70;;;;;;;16.14;23.14;101390.16;1810713;77;21260;-96
2021/04/11 11:35:48;;;;;;;9.43;6.08;;;;;;;16.07;23.47;101387.98;1733444;79;21349;-92
2021/04/11 11:39:01;;;;;;;8.73;5.00;;;;;;;16.15;23.58;101376.52;1829945;77;27841;-95
2021/04/11 11:42:17;;;;;;;9.80;6.47;;;;;;;16.18;23.68;101377.15;1803880;78;21130;-93
2021/04/11 11:45:07;;;;;;;6.95;5.17;;;;;;;16.14;22.77;101377.56;1747088;79;21349;-92
2021/04/11 11:48:04;;;;;;;7.53;5.03;;;;;;;16.08;22.06;101375.66;1747068;78;21373;-93
2021/04/11 11:50:47;;;;;;;7.05;5.33;;;;;;;16.08;21.96;101385.06;1764237;80;21165;-93
2021/04/11 11:53:46;;;;;;;9.23;5.20;;;;;;;16.06;21.28;101364.27;1771799;80;21306;-93
2021/04/11 11:56:22;;;;;;;9.53;5.15;;;;;;;16.05;21.69;101357.73;1763975;79;21480;-93
2021/04/11 11:59:16;;;;;;;;;;;;;;;16.06;21.62;101358.89;1701540;82;21861;-92
2021/04/11 12:02:24;;;;;;;7.75;5.20;;;;;;;16.04;21.98;101358.27;1692331;82;20202;-92
2021/04/11 12:05:34;;;;;;;6.33;5.75;;;;;;;16.05;22.73;101347.83;1690429;81;21204;-93
2021/04/11 12:08:43;;;;;;;8.03;5.33;;;;;;;16.02;22.37;101346.88;1678281;84;21199;-92
2021/04/11 12:11:40;;;;;;;;;;;;;;;;;;;;;
2021/04/11 12:15:09;;;;;;;9.15;6.25;;;;;;;16.07;22.49;101349.80;1792934;79;22553;-94
2021/04/11 12:18:21;;;;;;;12.65;7.40;;;;;;;16.04;22.34;101349.38;1764948;78;21169;-93
2021/04/11 12:21:32;;;;;;;13.32;7.72;;;;;;;16.05;21.96;101341.11;1747158;80;21193;-93
2021/04/11 12:24:20;;;;;;;11.08;7.12;;;;;;;16.06;22.00;101345.44;1725398;79;21247;-96
2021/04/11 12:26:58;;;;;;;10.75;6.30;;;;;;;16.10;21.99;101334.59;1724102;80;22155;-96
2021/04/11 12:29:38;;;;;;;6.35;5.75;;;;;;;16.14;22.00;101335.88;1706261;80;21567;-95
2021/04/11 12:32:55;;;;;;;8.80;6.50;;;;;;;16.19;21.79;101326.38;1713169;80;21188;-93
2021/04/11 12:35:54;;;;;;;8.65;6.22;;;;;;;16.18;22.14;101320.17;1702512;84;21188;-95
2021/04/11 12:39:23;;;;;;;;;;;;;;;;;;;;;
2021/04/11 12:42:48;;;;;;;8.00;6.55;;;;;;;16.29;21.89;101325.46;1799203;77;27011;-96
2021/04/11 12:46:00;;;;;;;8.68;6.83;;;;;;;16.27;21.81;101340.98;1758680;79;21128;-96
2021/04/11 12:49:39;;;;;;;;;;;;;;;;;;;;;
2021/04/11 12:53:23;;;;;;;9.30;6.60;;;;;;;16.25;22.12;101333.62;1651936;84;21434;-96
2021/04/11 15:31:31;;;;;;;6.70;6.20;;;;;;;16.00;21.23;101266.92;1706842;80;80720;-93
2021/04/11 15:48:06;;;;;;;7.33;6.72;;;;;;;15.85;21.28;101254.16;1767881;79;22934;-88
2021/04/11 15:50:54;;;;;;;8.58;6.58;;;;;;;15.75;21.33;101252.66;1765851;80;21200;-89
2021/04/11 15:54:00;;;;;;;8.73;7.83;;;;;;;15.85;21.43;101267.59;1734473;81;21172;-89
2021/04/11 15:56:41;;;;;;;10.13;7.78;;;;;;;15.86;21.61;101260.68;1712301;81;21127;-89
2021/04/11 15:59:32;;;;;;;9.63;8.63;;;;;;;15.86;21.79;101262.52;1681904;83;21191;-88
2021/04/11 16:02:38;;;;;;;10.23;9.13;;;;;;;15.85;21.74;101260.34;1653555;81;21234;-87
2021/04/11 16:05:28;;;;;;;11.12;8.25;;;;;;;15.85;21.81;101254.16;1677899;83;21379;-87
2021/04/11 16:08:19;;;;;;;9.33;8.38;;;;;;;15.81;21.91;101255.06;1655218;84;21280;-93
2021/04/11 16:15:09;;;;;;;;;;;;;;;;;;;;;
2021/04/11 16:40:23;;;;;;;;;;;;;;;;;;;;;
2021/04/11 16:43:41;;;;;;;10.20;9.20;;;;;;;15.21;22.79;101268.14;1677706;84;21245;-92
2021/04/11 16:47:08;;;;;;;10.93;9.93;;;;;;;15.22;22.67;101271.64;1834844;75;23636;-93
2021/04/11 16:50:28;;;;;;;10.60;9.60;;;;;;;15.16;22.70;101279.97;1811856;78;21141;-95
2021/04/11 16:53:45;;;;;;;11.60;9.23;;;;;;;15.16;22.76;101273.26;1800499;79;23734;-95
2021/04/11 16:56:41;;;;;;;11.25;9.43;;;;;;;15.10;22.80;101275.39;1661139;82;22277;-92
2021/04/11 16:59:22;;;;;;;16.20;10.38;;;;;;;15.07;22.94;101281.99;1736259;80;21172;-93
2021/04/11 17:24:14;;;;;;;;;;;;;;;;;;;;;
2021/04/11 17:27:37;;;;;;;9.70;7.97;;;;;;;14.49;23.34;101296.81;1811701;78;24579;-94
2021/04/11 17:30:56;;;;;;;9.70;8.13;;;;;;;14.45;23.35;101310.30;1751943;80;21180;-94
2021/04/11 17:34:40;;;;;;;9.13;6.87;;;;;;;14.41;23.35;101309.02;1691457;81;21128;-93
2021/04/11 17:38:15;;;;;;;8.03;7.15;;;;;;;13.56;23.17;101178.67;1605566;88;21235;-94
2021/04/11 17:42:16;;;;;;;;;;;;;;;;;;;;;
2021/04/11 17:45:18;;;;;;;8.28;6.97;;;;;;;14.25;23.39;101310.06;1621777;86;21432;-93
2021/04/11 18:08:31;;;;;;;8.93;7.20;;;;;;;13.83;23.62;101327.18;1685452;80;21175;-94
2021/04/11 18:11:25;;;;;;;8.05;7.25;;;;;;;13.79;23.79;101327.23;1604574;88;21202;-74
2021/04/11 18:14:19;;;;;;;8.03;7.22;;;;;;;13.77;23.93;101323.91;1636727;85;21392;-74
2021/04/11 18:17:05;;;;;;;8.60;6.65;;;;;;;13.74;23.84;101328.29;1624536;85;21183;-75
2021/04/11 18:20:13;;;;;;;7.50;6.78;;;;;;;13.70;23.86;101332.36;1622690;86;21398;-75
2021/04/11 18:23:08;;;;;;;11.30;8.00;;;;;;;13.68;23.90;101338.41;1589143;87;21809;-75
2021/04/11 18:25:47;;;;;;;7.65;6.85;;;;;;;13.63;24.00;101335.45;1511492;90;21207;-73
2021/04/11 18:28:32;;;;;;;16.57;7.65;;;;;;;13.58;24.06;101336.02;1558230;90;21544;-74
2021/04/11 18:31:10;;;;;;;11.35;7.72;;;;;;;13.39;24.14;101305.73;1558849;90;21201;-73
2021/04/11 18:33:46;;;;;;;9.75;7.95;;;;;;;13.53;24.08;101330.88;1566885;88;21255;-75
2021/04/11 18:36:33;;;;;;;8.60;7.80;;;;;;;13.51;24.15;101336.41;1591968;88;21721;-76
2021/04/11 18:39:28;;;;;;;8.18;6.60;;;;;;;13.46;23.89;101340.66;1567303;88;21249;-75
2021/04/11 18:42:16;;;;;;;10.13;8.05;;;;;;;13.46;23.89;101340.66;1605248;87;21222;-74
2021/04/11 18:45:11;;;;;;;8.35;7.55;;;;;;;13.41;24.04;101335.34;1567651;87;21101;-75
2021/04/11 18:48:14;;;;;;;10.20;8.20;;;;;;;13.37;24.05;101330.52;1524956;92;21250;-75
2021/04/11 18:50:58;;;;;;;8.78;7.90;;;;;;;13.33;24.09;101331.39;1560221;89;21685;-77
2021/04/11 18:53:50;;;;;;;10.20;7.67;;;;;;;13.30;24.16;101336.24;1561462;89;21818;-76
2021/04/11 18:56:44;;;;;;;10.60;8.47;;;;;;;12.64;24.15;101242.67;1560103;89;21299;-75
2021/04/11 18:59:37;;;;;;;10.00;8.98;;;;;;;13.20;24.25;101347.21;1568116;90;21196;-75
2021/04/11 19:02:42;;;;;;;10.23;9.18;;;;;;;13.14;24.24;101340.73;1577011;89;21152;-77
2021/04/11 19:05:30;;;;;;;9.20;8.30;;;;;;;13.08;24.39;101336.11;1570716;90;21399;-76
2021/04/11 19:08:17;;;;;;;8.90;7.95;;;;;;;13.02;24.28;101331.48;1565637;90;21237;-75
2021/04/11 19:11:17;;;;;;;9.33;8.43;;;;;;;12.99;24.27;101336.67;1572331;90;21240;-75
2021/04/11 19:14:30;;;;;;;14.27;11.77;;;;;;;12.94;24.19;101328.37;1561032;89;21581;-75
2021/04/11 19:17:20;;;;;;;17.27;11.00;;;;;;;12.89;24.29;101333.42;1541446;90;21217;-74
2021/04/11 19:20:23;;;;;;;14.57;13.07;;;;;;;12.84;24.31;101335.80;1556898;90;21266;-78
2021/04/11 19:23:19;;;;;;;18.90;14.43;;;;;;;12.80;24.41;101337.17;1572862;89;21160;-79
2021/04/11 19:25:55;;;;;;;21.30;14.33;;;;;;;12.78;24.46;101337.86;1535698;89;21204;-84